Airport View

Enter AWOS ICAO identifier for current METAR.

ex. KFNL

KDAG 101450Z AUTO 27011KT 10SM CLR 26/04 A2994 RMK AO2 SLP107 T02610044 53015

10 Aug 2020 15:14

Frequency: 132.175

Phone: 760-254-3630

Other Area AWOS: KBYS - KVCV - KL35 - KNXP

TAF KDAG 101131Z 1012/1112 26012KT P6SM SKC FM101900 VRB05KT P6SM SKC FM110100 25014G21KT P6SM SKC FM110900 27010KT P6SM SKC